Time;durP1;ratioP1;P1;durP2;ratioP2;P2;SDS_P1;SDS_P2;PMS_P1;PMS_P2;Temp;Humidity;BMP_temperature;BMP_pressure;BME280_temperature;BME280_humidity;BME280_pressure;Samples;Min_cycle;Max_cycle;Signal;HPM_P1;HPM_P2
2022/08/17 00:02:19;;;;;;;16.70;11.90;;;;;;;;;;5012553;28;20232;-16
2022/08/17 00:04:52;;;;;;;13.68;12.18;;;;;;;;;;5013044;28;20242;-16
2022/08/17 00:07:20;;;;;;;14.25;12.18;;;;;;;;;;5012619;28;20238;-16
2022/08/17 00:09:47;;;;;;;14.25;12.75;;;;;;;;;;5012905;28;20231;-16
2022/08/17 00:12:16;;;;;;;13.90;11.68;;;;;;;;;;5012072;28;20232;-16
2022/08/17 00:15:04;;;;;;;12.60;11.15;;;;;;;;;;5012624;28;20263;-16
2022/08/17 00:17:31;;;;;;;13.38;10.88;;;;;;;;;;5012822;28;20235;-16
2022/08/17 00:19:59;;;;;;;13.43;11.63;;;;;;;;;;5011908;28;20231;-15
2022/08/17 00:22:26;;;;;;;14.68;13.13;;;;;;;;;;5012325;28;20243;-16
2022/08/17 00:25:02;;;;;;;13.93;12.48;;;;;;;;;;5011727;28;20245;-16
2022/08/17 00:27:32;;;;;;;13.90;11.93;;;;;;;;;;5013039;28;20239;-16
2022/08/17 00:29:59;;;;;;;13.65;11.68;;;;;;;;;;5012257;28;20243;-16
2022/08/17 00:32:27;;;;;;;13.77;12.20;;;;;;;;;;5012454;28;20231;-16
2022/08/17 00:35:16;;;;;;;17.65;13.27;;;;;;;;;;5012224;28;20243;-16
2022/08/17 00:37:43;;;;;;;16.60;12.77;;;;;;;;;;5012416;28;20248;-16
2022/08/17 00:40:11;;;;;;;12.90;11.63;;;;;;;;;;5012441;28;20240;-16
2022/08/17 00:42:40;;;;;;;14.68;12.30;;;;;;;;;;5012610;28;20231;-16
2022/08/17 00:45:08;;;;;;;13.80;12.38;;;;;;;;;;5011153;28;20242;-16
2022/08/17 00:47:35;;;;;;;17.10;12.68;;;;;;;;;;5002067;28;20232;-16
2022/08/17 00:50:03;;;;;;;14.32;12.90;;;;;;;;;;5012380;28;20224;-16
2022/08/17 00:52:32;;;;;;;14.75;13.15;;;;;;;;;;5012286;28;20988;-16
2022/08/17 00:54:59;;;;;;;14.23;12.68;;;;;;;;;;5011804;28;20227;-15
2022/08/17 00:57:28;;;;;;;13.68;12.27;;;;;;;;;;5012054;28;20243;-16
2022/08/17 00:59:57;;;;;;;15.18;13.45;;;;;;;;;;5012101;28;20228;-16
2022/08/17 01:02:30;;;;;;;13.80;12.18;;;;;;;;;;5012149;28;20346;-16
2022/08/17 01:05:09;;;;;;;13.20;11.90;;;;;;;;;;5011755;28;20684;-15
2022/08/17 01:07:36;;;;;;;14.77;11.80;;;;;;;;;;5011876;28;20236;-16
2022/08/17 01:10:05;;;;;;;14.75;11.98;;;;;;;;;;5011398;28;20231;-16
2022/08/17 01:12:33;;;;;;;15.85;11.77;;;;;;;;;;5012014;28;20231;-16
2022/08/17 01:15:02;;;;;;;17.58;12.90;;;;;;;;;;5011727;28;20224;-16
2022/08/17 01:17:29;;;;;;;14.13;12.80;;;;;;;;;;5008535;28;20247;-15
2022/08/17 01:19:57;;;;;;;15.43;13.55;;;;;;;;;;5011421;28;20234;-16
2022/08/17 01:22:25;;;;;;;14.80;13.40;;;;;;;;;;5011468;28;20310;-15
2022/08/17 01:24:56;;;;;;;15.32;13.82;;;;;;;;;;5011573;28;20262;-16
2022/08/17 01:27:23;;;;;;;17.42;15.57;;;;;;;;;;5011805;28;20236;-16
2022/08/17 01:29:51;;;;;;;16.33;14.73;;;;;;;;;;5013851;28;20679;-15
2022/08/17 01:32:19;;;;;;;18.35;15.63;;;;;;;;;;5010712;28;20316;-16
2022/08/17 01:34:46;;;;;;;17.60;15.90;;;;;;;;;;5009993;28;20703;-16
2022/08/17 01:37:17;;;;;;;16.73;15.02;;;;;;;;;;5009937;28;20753;-16
2022/08/17 01:39:47;;;;;;;16.63;14.93;;;;;;;;;;5010793;28;21035;-16
2022/08/17 01:42:16;;;;;;;17.40;15.50;;;;;;;;;;4994727;28;20802;-16
2022/08/17 01:44:44;;;;;;;17.73;15.55;;;;;;;;;;5005532;28;20243;-16
2022/08/17 01:47:11;;;;;;;17.20;15.40;;;;;;;;;;5011250;28;20231;-16
2022/08/17 01:49:38;;;;;;;17.63;15.95;;;;;;;;;;5011348;28;20235;-16
2022/08/17 01:52:07;;;;;;;17.98;15.40;;;;;;;;;;5011078;28;20242;-16
2022/08/17 01:54:34;;;;;;;16.40;14.70;;;;;;;;;;5011743;28;20235;-16
2022/08/17 01:57:03;;;;;;;16.00;14.48;;;;;;;;;;5010976;28;20244;-16
2022/08/17 01:59:30;;;;;;;14.88;13.38;;;;;;;;;;5010607;28;20235;-15
2022/08/17 02:01:58;;;;;;;16.33;14.20;;;;;;;;;;5010897;28;20231;-16
2022/08/17 02:04:26;;;;;;;18.50;14.57;;;;;;;;;;5011042;28;20239;-16
2022/08/17 02:06:53;;;;;;;16.88;15.18;;;;;;;;;;5010757;28;20237;-16
2022/08/17 02:09:21;;;;;;;15.90;14.38;;;;;;;;;;5011215;28;20946;-16
2022/08/17 02:11:52;;;;;;;15.73;14.15;;;;;;;;;;5010672;28;20231;-16
2022/08/17 02:14:21;;;;;;;16.15;14.52;;;;;;;;;;5010455;28;20227;-16
2022/08/17 02:16:49;;;;;;;16.10;14.50;;;;;;;;;;5010921;28;20380;-16
2022/08/17 02:19:16;;;;;;;17.95;13.77;;;;;;;;;;5010750;28;20242;-15
2022/08/17 02:21:44;;;;;;;14.48;13.07;;;;;;;;;;5048022;22;20245;-12
2022/08/17 02:24:13;;;;;;;17.92;13.80;;;;;;;;;;5049969;28;20234;-12
2022/08/17 02:26:41;;;;;;;16.60;14.90;;;;;;;;;;5044840;28;20234;-12
2022/08/17 02:29:08;;;;;;;15.23;12.75;;;;;;;;;;5043838;28;20719;-12
2022/08/17 02:31:37;;;;;;;18.30;12.60;;;;;;;;;;5055570;28;20234;-12
2022/08/17 02:34:05;;;;;;;15.18;12.63;;;;;;;;;;5056191;28;20241;-12
2022/08/17 02:36:32;;;;;;;16.23;13.55;;;;;;;;;;5047134;28;20234;-12
2022/08/17 02:39:00;;;;;;;14.85;12.65;;;;;;;;;;5056164;28;20265;-12
2022/08/17 02:41:27;;;;;;;15.50;13.52;;;;;;;;;;5055387;28;20222;-12
2022/08/17 02:43:55;;;;;;;15.38;13.70;;;;;;;;;;5057247;28;20238;-12
2022/08/17 02:46:22;;;;;;;15.07;13.18;;;;;;;;;;5054754;28;20233;-12
2022/08/17 02:48:51;;;;;;;13.63;11.98;;;;;;;;;;5055732;28;20266;-12
2022/08/17 02:51:18;;;;;;;14.88;13.23;;;;;;;;;;5055377;28;20234;-12
2022/08/17 02:53:46;;;;;;;15.35;13.00;;;;;;;;;;5056716;28;20238;-12
2022/08/17 02:56:13;;;;;;;14.95;13.50;;;;;;;;;;5050460;28;20223;-12
2022/08/17 02:58:41;;;;;;;14.90;13.45;;;;;;;;;;5049153;28;20246;-12
2022/08/17 03:01:08;;;;;;;13.88;12.68;;;;;;;;;;5056605;28;20244;-12
2022/08/17 03:03:36;;;;;;;16.70;13.48;;;;;;;;;;5056490;28;20445;-12
2022/08/17 03:06:06;;;;;;;14.75;13.25;;;;;;;;;;5056333;28;20229;-12
2022/08/17 03:08:33;;;;;;;15.45;12.73;;;;;;;;;;5055953;28;20273;-12
2022/08/17 03:11:01;;;;;;;15.13;13.52;;;;;;;;;;5056686;28;20249;-12
2022/08/17 03:13:29;;;;;;;15.18;13.68;;;;;;;;;;5055817;28;20234;-12
2022/08/17 03:15:57;;;;;;;16.40;14.35;;;;;;;;;;5056504;28;20279;-12
2022/08/17 03:18:24;;;;;;;18.13;13.95;;;;;;;;;;5056724;28;20241;-12
2022/08/17 03:20:52;;;;;;;17.20;15.43;;;;;;;;;;5049421;28;20243;-12
2022/08/17 03:23:22;;;;;;;15.40;13.77;;;;;;;;;;5036829;28;20231;-12
2022/08/17 03:25:50;;;;;;;16.20;14.55;;;;;;;;;;5036277;28;20235;-12
2022/08/17 03:28:19;;;;;;;14.60;13.20;;;;;;;;;;5036354;28;20929;-12
2022/08/17 03:30:47;;;;;;;16.00;14.18;;;;;;;;;;5027960;28;20241;-12
2022/08/17 03:33:15;;;;;;;14.52;13.02;;;;;;;;;;5036432;28;20231;-12
2022/08/17 03:35:42;;;;;;;15.18;13.55;;;;;;;;;;5036224;28;20732;-12
2022/08/17 03:38:10;;;;;;;14.77;13.32;;;;;;;;;;5035457;28;20256;-12
2022/08/17 03:40:38;;;;;;;15.07;13.40;;;;;;;;;;5034025;28;21240;-12
2022/08/17 03:43:25;;;;;;;15.70;14.07;;;;;;;;;;5032052;28;20338;-12
2022/08/17 03:57:13;;;;;;;17.05;13.88;;;;;;;;;;5032492;28;20227;-12
2022/08/17 03:59:41;;;;;;;15.45;13.95;;;;;;;;;;5032710;28;20235;-12
2022/08/17 04:02:09;;;;;;;17.25;13.98;;;;;;;;;;5032535;28;20318;-12
2022/08/17 04:04:37;;;;;;;15.75;13.30;;;;;;;;;;5031515;28;20234;-12
2022/08/17 04:07:05;;;;;;;14.63;13.23;;;;;;;;;;5032933;28;20235;-12
2022/08/17 04:09:32;;;;;;;15.15;13.63;;;;;;;;;;5032434;28;20227;-12
2022/08/17 04:11:59;;;;;;;14.93;13.43;;;;;;;;;;5032296;28;20647;-12
2022/08/17 04:14:35;;;;;;;16.70;15.00;;;;;;;;;;5032280;28;20234;-12
2022/08/17 04:17:20;;;;;;;14.60;13.20;;;;;;;;;;5031546;28;20238;-12
2022/08/17 04:19:47;;;;;;;16.27;13.48;;;;;;;;;;5032383;28;20242;-12
2022/08/17 04:22:14;;;;;;;17.85;13.77;;;;;;;;;;5031137;28;20243;-12
2022/08/17 04:25:05;;;;;;;15.07;12.73;;;;;;;;;;5032225;28;20298;-12
2022/08/17 04:27:32;;;;;;;16.50;13.35;;;;;;;;;;5032183;28;20310;-12
2022/08/17 04:30:01;;;;;;;20.23;14.57;;;;;;;;;;5032045;28;20236;-12
2022/08/17 04:32:28;;;;;;;15.32;13.02;;;;;;;;;;5031943;28;20676;-12
2022/08/17 04:35:17;;;;;;;14.23;12.35;;;;;;;;;;5032118;28;20231;-12
2022/08/17 04:37:46;;;;;;;14.43;13.13;;;;;;;;;;5037462;28;20233;-12
2022/08/17 04:43:02;;;;;;;21.67;15.05;;;;;;;;;;5020383;28;20238;-12
2022/08/17 04:45:30;;;;;;;14.80;13.30;;;;;;;;;;5032025;28;20369;-12
2022/08/17 04:47:58;;;;;;;15.20;13.68;;;;;;;;;;5031770;28;20326;-12
2022/08/17 04:50:26;;;;;;;16.52;14.68;;;;;;;;;;5031934;28;20242;-12
2022/08/17 04:52:53;;;;;;;18.42;14.48;;;;;;;;;;5030989;28;20842;-12
2022/08/17 04:55:21;;;;;;;17.23;14.98;;;;;;;;;;5031294;28;20227;-12
2022/08/17 04:57:48;;;;;;;17.83;14.32;;;;;;;;;;5031762;28;20227;-12
2022/08/17 05:00:16;;;;;;;16.92;14.95;;;;;;;;;;5031732;28;21070;-12
2022/08/17 05:02:45;;;;;;;16.73;15.05;;;;;;;;;;5031619;28;20833;-12
2022/08/17 05:05:17;;;;;;;18.25;15.02;;;;;;;;;;5031751;28;20229;-12
2022/08/17 05:07:45;;;;;;;22.95;16.00;;;;;;;;;;5031668;28;20256;-12
2022/08/17 05:10:12;;;;;;;18.25;15.63;;;;;;;;;;5031346;28;20227;-12
2022/08/17 05:12:39;;;;;;;18.00;16.15;;;;;;;;;;5031856;28;21002;-12
2022/08/17 05:15:10;;;;;;;17.55;15.65;;;;;;;;;;5031461;28;20241;-12
2022/08/17 05:17:37;;;;;;;16.85;15.10;;;;;;;;;;5031465;28;20231;-12
2022/08/17 05:20:07;;;;;;;18.67;14.43;;;;;;;;;;5027009;28;20246;-12
2022/08/17 05:22:34;;;;;;;14.05;12.65;;;;;;;;;;5030227;28;20246;-13
2022/08/17 05:25:01;;;;;;;16.42;13.13;;;;;;;;;;5030146;28;20233;-13
2022/08/17 05:27:29;;;;;;;15.18;13.68;;;;;;;;;;5031184;28;20290;-12
2022/08/17 05:30:02;;;;;;;16.13;14.00;;;;;;;;;;5028982;28;20231;-12
2022/08/17 05:32:29;;;;;;;15.40;13.55;;;;;;;;;;5030751;28;20275;-12
2022/08/17 05:35:08;;;;;;;15.85;14.23;;;;;;;;;;5029524;28;20848;-12
2022/08/17 05:37:35;;;;;;;19.42;14.50;;;;;;;;;;5028551;28;21027;-12
2022/08/17 05:40:03;;;;;;;16.25;14.65;;;;;;;;;;5024315;28;20239;-12
2022/08/17 05:42:30;;;;;;;15.85;14.30;;;;;;;;;;5016844;28;20234;-12
2022/08/17 05:44:58;;;;;;;16.27;14.57;;;;;;;;;;5021412;28;20232;-12
2022/08/17 05:47:25;;;;;;;16.92;14.95;;;;;;;;;;5021688;28;20238;-12
2022/08/17 05:49:52;;;;;;;20.80;14.80;;;;;;;;;;5018432;28;20239;-12
2022/08/17 05:52:25;;;;;;;16.88;14.82;;;;;;;;;;5019721;28;20223;-12
2022/08/17 05:55:02;;;;;;;24.35;14.95;;;;;;;;;;5029273;28;20246;-12
2022/08/17 05:57:35;;;;;;;14.40;12.90;;;;;;;;;;5031289;28;20241;-12
2022/08/17 06:00:15;;;;;;;16.40;14.70;;;;;;;;;;5016902;28;20250;-12
2022/08/17 06:02:50;;;;;;;19.45;15.82;;;;;;;;;;5030818;28;20234;-12
2022/08/17 06:05:22;;;;;;;19.67;15.23;;;;;;;;;;5031407;28;20231;-13
2022/08/17 06:07:53;;;;;;;18.83;14.40;;;;;;;;;;5031087;28;21093;-12
2022/08/17 06:10:23;;;;;;;26.52;17.27;;;;;;;;;;5030120;28;20238;-12
2022/08/17 06:12:53;;;;;;;24.27;21.25;;;;;;;;;;5030746;28;20233;-12
2022/08/17 06:15:24;;;;;;;24.50;21.90;;;;;;;;;;5030267;28;20262;-12
2022/08/17 06:17:52;;;;;;;23.15;19.80;;;;;;;;;;5030778;28;20630;-12
2022/08/17 06:20:20;;;;;;;20.90;18.70;;;;;;;;;;5030689;28;20233;-12
2022/08/17 06:22:48;;;;;;;21.52;17.70;;;;;;;;;;5030626;28;20242;-12
2022/08/17 06:25:17;;;;;;;18.77;16.83;;;;;;;;;;5030439;28;20223;-13
2022/08/17 06:27:46;;;;;;;21.33;15.80;;;;;;;;;;5029861;28;20666;-13
2022/08/17 06:30:20;;;;;;;22.40;17.63;;;;;;;;;;5029580;28;20867;-13
2022/08/17 06:32:48;;;;;;;19.30;17.33;;;;;;;;;;5029970;28;20238;-13
2022/08/17 06:35:17;;;;;;;31.15;17.63;;;;;;;;;;5029761;28;20235;-13
2022/08/17 06:37:55;;;;;;;18.45;16.58;;;;;;;;;;5029460;28;20357;-13
2022/08/17 06:40:32;;;;;;;26.23;19.23;;;;;;;;;;5029278;28;20235;-13
2022/08/17 06:43:03;;;;;;;23.50;20.92;;;;;;;;;;5030118;28;20230;-13
2022/08/17 06:45:34;;;;;;;23.83;21.17;;;;;;;;;;5029658;28;20314;-13
2022/08/17 06:48:04;;;;;;;24.08;20.63;;;;;;;;;;5030440;28;20246;-13
2022/08/17 06:50:34;;;;;;;16.95;15.25;;;;;;;;;;5029375;28;20237;-13
2022/08/17 06:53:03;;;;;;;18.48;15.45;;;;;;;;;;5030082;28;21326;-13
2022/08/17 06:55:35;;;;;;;23.15;19.55;;;;;;;;;;5029856;28;20235;-13
2022/08/17 06:58:06;;;;;;;26.17;20.70;;;;;;;;;;5029999;28;20606;-13
2022/08/17 07:00:42;;;;;;;26.92;22.50;;;;;;;;;;5028691;28;20235;-13
2022/08/17 07:03:14;;;;;;;27.52;23.25;;;;;;;;;;5029920;28;20797;-13
2022/08/17 07:05:42;;;;;;;31.58;24.88;;;;;;;;;;5029285;28;20238;-13
2022/08/17 07:08:15;;;;;;;25.27;22.55;;;;;;;;;;5029482;28;20238;-13
2022/08/17 07:10:46;;;;;;;23.00;20.70;;;;;;;;;;5029121;28;20254;-13
2022/08/17 07:13:16;;;;;;;23.38;19.15;;;;;;;;;;5026513;28;20234;-13
2022/08/17 07:15:44;;;;;;;26.63;21.38;;;;;;;;;;5029865;28;20733;-13
2022/08/17 07:18:12;;;;;;;25.77;22.08;;;;;;;;;;5032671;28;20227;-13
2022/08/17 07:20:41;;;;;;;25.42;22.80;;;;;;;;;;5032702;28;20235;-13
2022/08/17 07:23:12;;;;;;;21.45;19.30;;;;;;;;;;5032159;28;20264;-13
2022/08/17 07:25:39;;;;;;;30.38;22.67;;;;;;;;;;5017303;28;20281;-13
2022/08/17 07:28:08;;;;;;;25.65;21.58;;;;;;;;;;5024615;28;20231;-13
2022/08/17 07:30:37;;;;;;;32.00;23.20;;;;;;;;;;5023569;28;20226;-13
2022/08/17 07:33:14;;;;;;;24.50;22.00;;;;;;;;;;5024651;28;20333;-13
2022/08/17 07:35:41;;;;;;;30.67;23.40;;;;;;;;;;5023457;28;20257;-13
2022/08/17 07:38:12;;;;;;;28.23;23.38;;;;;;;;;;5025143;28;20226;-13
2022/08/17 07:41:00;;;;;;;26.30;23.08;;;;;;;;;;5027470;28;20245;-13
2022/08/17 07:43:29;;;;;;;29.55;24.73;;;;;;;;;;5023629;28;20242;-13
2022/08/17 07:48:49;;;;;;;28.35;25.20;;;;;;;;;;5028680;28;20235;-13
2022/08/17 07:51:17;;;;;;;29.08;25.38;;;;;;;;;;5026417;28;20237;-13
2022/08/17 07:53:45;;;;;;;31.48;28.13;;;;;;;;;;5025713;28;20249;-13
2022/08/17 07:56:18;;;;;;;35.78;26.10;;;;;;;;;;5027331;28;20241;-13
2022/08/17 07:58:47;;;;;;;32.47;26.27;;;;;;;;;;5028230;28;20257;-13
2022/08/17 08:01:16;;;;;;;31.85;22.80;;;;;;;;;;5027096;28;20355;-13
2022/08/17 08:03:45;;;;;;;25.90;21.83;;;;;;;;;;5027544;28;20253;-13
2022/08/17 08:06:19;;;;;;;36.13;22.35;;;;;;;;;;5028273;28;20237;-13
2022/08/17 08:08:50;;;;;;;28.35;21.58;;;;;;;;;;5033097;28;20230;-13
2022/08/17 08:11:28;;;;;;;29.63;20.48;;;;;;;;;;5032732;28;20241;-13
2022/08/17 08:13:57;;;;;;;33.05;20.00;;;;;;;;;;5033039;28;20237;-13
2022/08/17 08:16:25;;;;;;;26.42;18.58;;;;;;;;;;5032429;28;20249;-13
2022/08/17 08:18:53;;;;;;;23.73;19.00;;;;;;;;;;5041771;28;20231;-13
2022/08/17 08:21:28;;;;;;;25.13;19.15;;;;;;;;;;5032476;28;20667;-13
2022/08/17 08:23:58;;;;;;;20.63;18.10;;;;;;;;;;5033175;28;20711;-13
2022/08/17 08:26:27;;;;;;;20.23;17.42;;;;;;;;;;5031793;28;20231;-13
2022/08/17 08:28:57;;;;;;;20.23;18.17;;;;;;;;;;5030670;28;20235;-13
2022/08/17 08:31:26;;;;;;;19.90;17.85;;;;;;;;;;5029454;28;20242;-13
2022/08/17 08:33:57;;;;;;;21.33;18.13;;;;;;;;;;5030847;28;20246;-13
2022/08/17 08:36:26;;;;;;;21.70;16.63;;;;;;;;;;5031836;28;20234;-13
2022/08/17 08:39:15;;;;;;;22.17;16.98;;;;;;;;;;5032206;28;20855;-13
2022/08/17 08:41:44;;;;;;;17.30;15.50;;;;;;;;;;5031450;28;20332;-13
2022/08/17 08:44:18;;;;;;;17.65;15.90;;;;;;;;;;5032324;28;20239;-13
2022/08/17 08:46:47;;;;;;;18.20;16.33;;;;;;;;;;5033050;28;20235;-13
2022/08/17 08:49:20;;;;;;;19.55;16.70;;;;;;;;;;5032076;28;20234;-13
2022/08/17 08:52:09;;;;;;;20.67;16.05;;;;;;;;;;5032500;28;20230;-13
2022/08/17 08:54:38;;;;;;;18.17;16.25;;;;;;;;;;5032396;28;20241;-13
2022/08/17 08:57:12;;;;;;;21.02;17.90;;;;;;;;;;5032788;28;20234;-14
2022/08/17 08:59:59;;;;;;;21.75;16.80;;;;;;;;;;5032606;28;20239;-13
2022/08/17 09:02:34;;;;;;;18.85;15.82;;;;;;;;;;5031286;28;20234;-13
2022/08/17 09:05:06;;;;;;;18.23;16.42;;;;;;;;;;5032451;28;20693;-13
2022/08/17 09:07:43;;;;;;;17.48;15.32;;;;;;;;;;5031625;28;21120;-13
2022/08/17 09:10:12;;;;;;;16.48;14.20;;;;;;;;;;5032110;28;20317;-13
2022/08/17 09:12:41;;;;;;;16.58;14.73;;;;;;;;;;5032278;28;20246;-13
2022/08/17 09:15:13;;;;;;;17.90;14.30;;;;;;;;;;5031927;28;20226;-13
2022/08/17 09:17:43;;;;;;;16.67;15.07;;;;;;;;;;5032477;28;20981;-13
2022/08/17 09:20:12;;;;;;;16.52;14.75;;;;;;;;;;5032145;28;20238;-13
2022/08/17 09:22:56;;;;;;;18.60;14.88;;;;;;;;;;5031314;28;20271;-13
2022/08/17 09:25:27;;;;;;;17.40;14.80;;;;;;;;;;5031695;28;20234;-13
2022/08/17 09:27:56;;;;;;;19.52;15.93;;;;;;;;;;5031683;28;20226;-13
2022/08/17 09:30:35;;;;;;;17.67;15.85;;;;;;;;;;5031589;28;20227;-13
2022/08/17 09:33:04;;;;;;;18.30;15.95;;;;;;;;;;5031199;28;20736;-13
2022/08/17 09:35:33;;;;;;;18.35;15.05;;;;;;;;;;5031840;28;20258;-13
2022/08/17 09:38:05;;;;;;;19.65;17.15;;;;;;;;;;5030979;28;20611;-13
2022/08/17 09:40:33;;;;;;;19.13;15.80;;;;;;;;;;5031318;28;20257;-13
2022/08/17 09:43:01;;;;;;;19.23;14.40;;;;;;;;;;5031796;28;20242;-13
2022/08/17 09:45:32;;;;;;;17.88;16.00;;;;;;;;;;5031139;28;20245;-13
2022/08/17 09:48:01;;;;;;;23.75;19.33;;;;;;;;;;5031595;28;20235;-13
2022/08/17 09:50:30;;;;;;;18.75;16.42;;;;;;;;;;5031534;28;20234;-13
2022/08/17 09:53:18;;;;;;;23.95;20.02;;;;;;;;;;5020803;28;20242;-13
2022/08/17 09:55:49;;;;;;;19.92;17.17;;;;;;;;;;5030959;28;20237;-13
2022/08/17 09:58:18;;;;;;;17.42;15.13;;;;;;;;;;5030644;28;20238;-13
2022/08/17 10:00:51;;;;;;;19.35;16.80;;;;;;;;;;5031219;28;20312;-13
2022/08/17 10:03:22;;;;;;;18.95;15.43;;;;;;;;;;5031338;28;20241;-13
2022/08/17 10:05:54;;;;;;;19.75;15.35;;;;;;;;;;5031262;28;20239;-13
2022/08/17 10:08:26;;;;;;;18.67;15.23;;;;;;;;;;5030411;28;20239;-13
2022/08/17 10:10:58;;;;;;;14.98;13.48;;;;;;;;;;5031114;28;21028;-13
2022/08/17 10:13:32;;;;;;;15.55;14.05;;;;;;;;;;5030871;28;20247;-13
2022/08/17 10:16:03;;;;;;;18.77;14.05;;;;;;;;;;5031043;28;20235;-13
2022/08/17 10:18:34;;;;;;;21.67;13.57;;;;;;;;;;5030474;28;20314;-13
2022/08/17 10:26:27;;;;;;;15.13;13.52;;;;;;;;;;5031633;28;20239;-13
2022/08/17 10:29:16;;;;;;;14.27;12.77;;;;;;;;;;5030554;28;20253;-13
2022/08/17 10:31:45;;;;;;;17.10;14.10;;;;;;;;;;5031017;28;20222;-13
2022/08/17 10:34:34;;;;;;;15.48;13.85;;;;;;;;;;5016858;28;20715;-13
2022/08/17 10:37:09;;;;;;;17.27;15.52;;;;;;;;;;5007842;28;20235;-13
2022/08/17 10:39:39;;;;;;;17.38;15.52;;;;;;;;;;5030492;28;20949;-13
2022/08/17 10:42:21;;;;;;;18.67;15.02;;;;;;;;;;5030025;28;20265;-14
2022/08/17 10:44:59;;;;;;;18.15;15.68;;;;;;;;;;5030562;28;20238;-13
2022/08/17 10:47:28;;;;;;;15.63;14.13;;;;;;;;;;5030496;28;20281;-13
2022/08/17 10:49:56;;;;;;;15.45;13.95;;;;;;;;;;5030862;28;20231;-13
2022/08/17 10:52:42;;;;;;;20.58;15.95;;;;;;;;;;5033935;28;20227;-13
2022/08/17 10:55:13;;;;;;;21.30;14.77;;;;;;;;;;5034492;28;20235;-13
2022/08/17 10:57:41;;;;;;;19.60;15.10;;;;;;;;;;5034028;28;20226;-13
2022/08/17 11:00:11;;;;;;;16.35;14.68;;;;;;;;;;5034389;28;20231;-13
2022/08/17 11:02:44;;;;;;;17.25;14.98;;;;;;;;;;5034392;28;20239;-13
2022/08/17 11:05:21;;;;;;;15.15;13.55;;;;;;;;;;5034222;28;20235;-13
2022/08/17 11:07:52;;;;;;;19.05;14.45;;;;;;;;;;5034105;28;21194;-13
2022/08/17 11:10:46;;;;;;;19.60;15.85;;;;;;;;;;5034036;28;20583;-13
2022/08/17 11:13:22;;;;;;;16.38;14.68;;;;;;;;;;5033408;28;20322;-13
2022/08/17 11:15:52;;;;;;;17.45;13.93;;;;;;;;;;5033374;28;20242;-13
2022/08/17 11:18:32;;;;;;;17.17;15.48;;;;;;;;;;5033817;28;20242;-13
2022/08/17 11:21:06;;;;;;;20.15;14.48;;;;;;;;;;5033548;28;20330;-13
2022/08/17 11:24:01;;;;;;;15.50;14.07;;;;;;;;;;5032832;28;20733;-13
2022/08/17 11:26:29;;;;;;;20.20;15.32;;;;;;;;;;4998260;28;20982;-13
2022/08/17 11:28:58;;;;;;;21.65;16.98;;;;;;;;;;5033466;28;20231;-13
2022/08/17 11:31:27;;;;;;;18.85;16.10;;;;;;;;;;5033432;28;20237;-13
2022/08/17 11:34:07;;;;;;;19.05;16.63;;;;;;;;;;5033304;28;20258;-13
2022/08/17 11:36:47;;;;;;;16.63;14.85;;;;;;;;;;5033733;28;20241;-13
2022/08/17 11:39:18;;;;;;;16.42;14.73;;;;;;;;;;5033055;28;20234;-13
2022/08/17 11:41:48;;;;;;;15.70;14.00;;;;;;;;;;5032562;28;20235;-13
2022/08/17 11:44:22;;;;;;;25.55;17.10;;;;;;;;;;5033526;28;20239;-13
2022/08/17 11:52:38;;;;;;;17.63;15.77;;;;;;;;;;5033036;28;20231;-14
2022/08/17 11:55:07;;;;;;;17.23;15.38;;;;;;;;;;5033035;28;20231;-13
2022/08/17 11:57:58;;;;;;;19.48;17.30;;;;;;;;;;5032984;28;20234;-13
2022/08/17 12:00:43;;;;;;;19.00;17.05;;;;;;;;;;5033460;28;21029;-13
2022/08/17 12:03:22;;;;;;;20.02;17.90;;;;;;;;;;5022410;28;20237;-13
2022/08/17 12:05:52;;;;;;;20.70;17.55;;;;;;;;;;5032853;28;20241;-13
2022/08/17 12:08:20;;;;;;;18.70;16.77;;;;;;;;;;5032039;28;20241;-13
2022/08/17 12:10:52;;;;;;;21.83;18.65;;;;;;;;;;5032826;28;20717;-13
2022/08/17 12:13:20;;;;;;;21.73;17.80;;;;;;;;;;5032839;28;21049;-13
2022/08/17 12:15:49;;;;;;;16.20;14.40;;;;;;;;;;5032929;28;20230;-13
2022/08/17 12:18:20;;;;;;;18.52;16.23;;;;;;;;;;5032005;28;20824;-13
2022/08/17 12:20:48;;;;;;;17.00;15.30;;;;;;;;;;5032606;28;20241;-13
2022/08/17 12:23:27;;;;;;;24.00;16.30;;;;;;;;;;5032495;28;20725;-13
2022/08/17 12:25:55;;;;;;;22.42;15.15;;;;;;;;;;5033077;28;20238;-13
2022/08/17 12:28:24;;;;;;;19.65;14.85;;;;;;;;;;5032931;28;20796;-13
2022/08/17 12:30:51;;;;;;;16.50;14.80;;;;;;;;;;5031872;28;20227;-13
2022/08/17 12:33:20;;;;;;;19.35;16.48;;;;;;;;;;5031922;28;21668;-13
2022/08/17 12:35:58;;;;;;;17.92;16.08;;;;;;;;;;5032177;28;20285;-13
2022/08/17 12:38:27;;;;;;;16.92;13.93;;;;;;;;;;5032485;28;20226;-13
2022/08/17 12:41:24;;;;;;;16.60;15.00;;;;;;;;;;5032060;28;20975;-13
2022/08/17 12:43:54;;;;;;;16.00;14.20;;;;;;;;;;5032412;28;20614;-13
2022/08/17 12:46:21;;;;;;;15.43;13.88;;;;;;;;;;5032396;28;20242;-13
2022/08/17 12:48:51;;;;;;;17.50;14.05;;;;;;;;;;5032393;28;20242;-13
2022/08/17 12:51:27;;;;;;;15.82;13.60;;;;;;;;;;5031698;28;20234;-13
2022/08/17 12:53:56;;;;;;;15.73;13.85;;;;;;;;;;5032162;28;20234;-13
2022/08/17 12:56:24;;;;;;;15.65;13.90;;;;;;;;;;5032200;28;20234;-13
2022/08/17 12:58:54;;;;;;;15.80;13.93;;;;;;;;;;5031672;28;20271;-13
2022/08/17 13:01:23;;;;;;;18.88;15.98;;;;;;;;;;5032008;28;20235;-13
2022/08/17 13:03:51;;;;;;;18.80;16.65;;;;;;;;;;5031718;28;20239;-13
2022/08/17 13:06:25;;;;;;;20.17;18.08;;;;;;;;;;5032155;28;20233;-13
2022/08/17 13:08:52;;;;;;;26.85;21.15;;;;;;;;;;5032107;28;20235;-13
2022/08/17 13:11:23;;;;;;;19.80;17.15;;;;;;;;;;5031871;28;21431;-13
2022/08/17 13:13:50;;;;;;;19.80;17.52;;;;;;;;;;5030652;28;20238;-13
2022/08/17 13:16:19;;;;;;;24.38;16.75;;;;;;;;;;5032023;28;20241;-13
2022/08/17 13:18:47;;;;;;;19.55;17.55;;;;;;;;;;5031875;28;20227;-13
2022/08/17 13:21:17;;;;;;;21.48;19.27;;;;;;;;;;5031355;28;20247;-13
2022/08/17 13:23:54;;;;;;;21.35;19.05;;;;;;;;;;5030970;28;20243;-13
2022/08/17 13:26:26;;;;;;;19.65;17.63;;;;;;;;;;5031168;28;20227;-13
2022/08/17 13:28:53;;;;;;;21.45;17.40;;;;;;;;;;5031864;28;20234;-13
2022/08/17 13:31:22;;;;;;;23.30;20.95;;;;;;;;;;5031414;28;20230;-13
2022/08/17 13:33:50;;;;;;;25.70;22.50;;;;;;;;;;5031723;28;20256;-13
2022/08/17 13:36:28;;;;;;;26.10;23.33;;;;;;;;;;5031173;28;20773;-13
2022/08/17 13:39:04;;;;;;;26.88;24.08;;;;;;;;;;5031503;28;20706;-13
2022/08/17 13:41:33;;;;;;;25.67;22.60;;;;;;;;;;5031472;28;20332;-13
2022/08/17 13:44:01;;;;;;;29.60;24.77;;;;;;;;;;5031512;28;20322;-13
2022/08/17 13:46:29;;;;;;;28.13;24.50;;;;;;;;;;5030807;28;20990;-13
2022/08/17 13:48:57;;;;;;;28.83;25.80;;;;;;;;;;5030574;28;20235;-13
2022/08/17 13:51:26;;;;;;;25.35;22.85;;;;;;;;;;5031255;28;20245;-13
2022/08/17 13:53:58;;;;;;;27.77;24.58;;;;;;;;;;5031035;28;20238;-13
2022/08/17 13:56:36;;;;;;;22.60;20.15;;;;;;;;;;5018116;28;20634;-13
2022/08/17 13:59:06;;;;;;;20.95;18.75;;;;;;;;;;5030862;28;20281;-13
2022/08/17 14:01:34;;;;;;;20.42;18.33;;;;;;;;;;5031011;28;20686;-13
2022/08/17 14:04:02;;;;;;;18.60;16.70;;;;;;;;;;5030932;28;20246;-13
2022/08/17 14:06:31;;;;;;;19.20;17.13;;;;;;;;;;5030881;28;20223;-13
2022/08/17 14:09:18;;;;;;;17.65;15.95;;;;;;;;;;5030520;28;20697;-13
2022/08/17 14:11:48;;;;;;;18.60;15.25;;;;;;;;;;5031060;28;20766;-13
2022/08/17 14:14:16;;;;;;;18.48;16.63;;;;;;;;;;5030593;28;20730;-13
2022/08/17 14:16:43;;;;;;;19.08;17.17;;;;;;;;;;5030430;28;20356;-13
2022/08/17 14:19:11;;;;;;;19.80;17.80;;;;;;;;;;5030580;28;20234;-13
2022/08/17 14:21:38;;;;;;;18.35;16.45;;;;;;;;;;5024858;28;20253;-13
2022/08/17 14:24:07;;;;;;;17.83;16.02;;;;;;;;;;5030499;28;20265;-13
2022/08/17 14:26:34;;;;;;;17.05;15.35;;;;;;;;;;5030912;28;20223;-13
2022/08/17 14:29:04;;;;;;;16.20;14.60;;;;;;;;;;5030959;28;21104;-13
2022/08/17 14:31:41;;;;;;;16.58;14.88;;;;;;;;;;5030383;28;20336;-13
2022/08/17 14:34:14;;;;;;;15.85;14.25;;;;;;;;;;5017397;28;20834;-13
2022/08/17 14:36:42;;;;;;;15.43;13.88;;;;;;;;;;5030612;28;20231;-13
2022/08/17 14:39:15;;;;;;;16.15;14.32;;;;;;;;;;5029978;28;20290;-13
2022/08/17 14:41:42;;;;;;;16.27;14.60;;;;;;;;;;5029922;28;20231;-13
2022/08/17 14:44:11;;;;;;;15.75;14.13;;;;;;;;;;5030083;28;20238;-13
2022/08/17 14:46:39;;;;;;;17.35;15.65;;;;;;;;;;5030598;28;20238;-13
2022/08/17 14:49:06;;;;;;;17.35;15.55;;;;;;;;;;5030831;28;20241;-13
2022/08/17 14:51:34;;;;;;;17.45;15.75;;;;;;;;;;5030533;28;20335;-13
2022/08/17 14:54:09;;;;;;;18.73;16.73;;;;;;;;;;5030150;28;20336;-13
2022/08/17 14:56:37;;;;;;;16.83;15.20;;;;;;;;;;5030431;28;20226;-13
2022/08/17 14:59:04;;;;;;;18.27;16.38;;;;;;;;;;5030319;28;20233;-13
2022/08/17 15:01:34;;;;;;;20.40;16.83;;;;;;;;;;5030054;28;20234;-13
2022/08/17 15:04:01;;;;;;;17.65;15.80;;;;;;;;;;5036008;28;20244;-13
2022/08/17 15:06:28;;;;;;;18.30;16.40;;;;;;;;;;5034491;28;20222;-13